レシフェ の空港の天気 - METARとTAF

レシフェ・グアララペス国際空港 ( SBRF / REC ) - ブラジル ペルナンブーコ州レシフェ
飛行場実況気象(Metar)
観測時間08/11 04:00 BRT (08/11 07:00 UTC)
風向・風速南東 5m/s
視程10km以上
天気現象
全天の4割程度の雲 雲底高度 760m
気温25℃
湿度74%
気圧1014hPa
METARSBRF 110700Z 14009KT 9999 SCT025 25/20 Q1014
過去の天気等 Google飛行場航空写真 Wunderground天気予報

過去48時間のMETAR

飛行場予報(TAF)
発表時間: 8/11 00:00 BRT (8/11 03:00 UTC)
予報対象時間: 11日3時 BRT ~ 12日3時 BRT
風向・風速南南東 6m/s
視程10km以上
全天の4割程度の雲 雲底高度 610m
12日1時 BRT ~ 12日3時 BRT に徐々に
風向・風速南 4m/s
TAF SBRF 110300Z 1106/1206 15012KT 9999 SCT020 TX31/1118Z TN23/1206Z
BECMG 1204/1206 18008KT RMK PDP